sensor_id;sensor_type;location;lat;lon;timestamp;pressure;altitude;pressure_sealevel;temperature;humidity
13033;BME280;6583;42.632;23.298;2023-02-26T00:01:59;69423.94;;;-146.40;37.26
13033;BME280;6583;42.632;23.298;2023-02-26T00:04:26;69399.66;;;-146.40;38.12
13033;BME280;6583;42.632;23.298;2023-02-26T00:06:53;69381.44;;;-146.40;37.81
13033;BME280;6583;42.632;23.298;2023-02-26T00:09:20;69393.59;;;-146.40;38.31
13033;BME280;6583;42.632;23.298;2023-02-26T00:11:47;69395.59;;;-146.40;38.32
13033;BME280;6583;42.632;23.298;2023-02-26T00:14:15;69405.72;;;-146.40;38.04
13033;BME280;6583;42.632;23.298;2023-02-26T00:16:46;69381.44;;;-146.40;38.35
13033;BME280;6583;42.632;23.298;2023-02-26T00:19:21;69389.53;;;-146.40;37.28
13033;BME280;6583;42.632;23.298;2023-02-26T00:21:48;69421.91;;;-146.40;38.31
13033;BME280;6583;42.632;23.298;2023-02-26T00:24:15;69403.69;;;-146.40;38.41
13033;BME280;6583;42.632;23.298;2023-02-26T00:26:41;69413.81;;;-146.40;38.44
13033;BME280;6583;42.632;23.298;2023-02-26T00:29:08;69381.44;;;-146.40;38.36
13033;BME280;6583;42.632;23.298;2023-02-26T00:31:36;69381.44;;;-146.40;38.81
13033;BME280;6583;42.632;23.298;2023-02-26T00:34:03;69401.69;;;-146.40;38.20
13033;BME280;6583;42.632;23.298;2023-02-26T00:36:38;69401.69;;;-146.40;38.17
13033;BME280;6583;42.632;23.298;2023-02-26T00:39:17;69409.78;;;-146.40;38.21
13033;BME280;6583;42.632;23.298;2023-02-26T00:41:48;69405.72;;;-146.40;38.41
13033;BME280;6583;42.632;23.298;2023-02-26T00:44:15;69399.66;;;-146.40;38.40
13033;BME280;6583;42.632;23.298;2023-02-26T00:46:46;69397.63;;;-146.40;37.98
13033;BME280;6583;42.632;23.298;2023-02-26T00:49:22;69389.53;;;-146.40;37.72
13033;BME280;6583;42.632;23.298;2023-02-26T00:51:55;69391.56;;;-146.40;37.68
13033;BME280;6583;42.632;23.298;2023-02-26T00:54:25;69385.50;;;-146.40;37.05
13033;BME280;6583;42.632;23.298;2023-02-26T00:56:53;69377.41;;;-146.40;36.98
13033;BME280;6583;42.632;23.298;2023-02-26T00:59:20;69387.53;;;-146.40;37.19
13033;BME280;6583;42.632;23.298;2023-02-26T01:01:48;69385.50;;;-146.40;35.88
13033;BME280;6583;42.632;23.298;2023-02-26T01:04:17;69377.41;;;-146.40;36.48
13033;BME280;6583;42.632;23.298;2023-02-26T01:06:45;69389.53;;;-146.40;36.28
13033;BME280;6583;42.632;23.298;2023-02-26T01:09:20;69389.53;;;-146.40;36.75
13033;BME280;6583;42.632;23.298;2023-02-26T01:11:50;69357.19;;;-146.40;37.03
13033;BME280;6583;42.632;23.298;2023-02-26T01:14:18;69365.28;;;-146.40;36.92
13033;BME280;6583;42.632;23.298;2023-02-26T01:16:50;69371.34;;;-146.40;36.78
13033;BME280;6583;42.632;23.298;2023-02-26T01:19:25;69381.44;;;-146.40;36.91
13033;BME280;6583;42.632;23.298;2023-02-26T01:22:00;69393.59;;;-146.40;37.05
13033;BME280;6583;42.632;23.298;2023-02-26T01:24:30;69405.72;;;-146.40;37.01
13033;BME280;6583;42.632;23.298;2023-02-26T01:27:00;69387.53;;;-146.40;36.94
13033;BME280;6583;42.632;23.298;2023-02-26T01:29:26;69375.38;;;-146.40;36.63
13033;BME280;6583;42.632;23.298;2023-02-26T01:31:58;69355.16;;;-146.40;36.63
13033;BME280;6583;42.632;23.298;2023-02-26T01:34:33;69385.50;;;-146.40;37.09
13033;BME280;6583;42.632;23.298;2023-02-26T01:37:06;69349.09;;;-146.40;36.81
13033;BME280;6583;42.632;23.298;2023-02-26T01:39:39;69379.44;;;-146.40;36.61
13033;BME280;6583;42.632;23.298;2023-02-26T01:42:14;69369.31;;;-146.40;37.00
13033;BME280;6583;42.632;23.298;2023-02-26T01:44:51;69357.19;;;-146.40;36.84
13033;BME280;6583;42.632;23.298;2023-02-26T01:47:25;69357.19;;;-146.40;36.66
13033;BME280;6583;42.632;23.298;2023-02-26T01:49:54;69353.13;;;-146.40;36.38
13033;BME280;6583;42.632;23.298;2023-02-26T01:55:29;69353.13;;;-146.40;36.31
13033;BME280;6583;42.632;23.298;2023-02-26T01:57:57;69341.00;;;-146.40;36.17
13033;BME280;6583;42.632;23.298;2023-02-26T02:00:26;69351.13;;;-146.40;36.48
13033;BME280;6583;42.632;23.298;2023-02-26T02:02:53;69345.03;;;-146.40;36.53
13033;BME280;6583;42.632;23.298;2023-02-26T02:05:23;69341.00;;;-146.40;35.46
13033;BME280;6583;42.632;23.298;2023-02-26T02:07:51;69341.00;;;-146.40;35.81
13033;BME280;6583;42.632;23.298;2023-02-26T02:10:18;69320.78;;;-146.40;35.67
13033;BME280;6583;42.632;23.298;2023-02-26T02:12:50;69324.81;;;-146.40;35.64
13033;BME280;6583;42.632;23.298;2023-02-26T02:15:25;69320.78;;;-146.40;35.56
13033;BME280;6583;42.632;23.298;2023-02-26T02:18:00;69336.97;;;-146.40;35.28
13033;BME280;6583;42.632;23.298;2023-02-26T02:21:08;69316.72;;;-146.40;35.36
13033;BME280;6583;42.632;23.298;2023-02-26T02:23:44;69304.59;;;-146.40;35.12
13033;BME280;6583;42.632;23.298;2023-02-26T02:29:49;69324.81;;;-146.40;34.83
13033;BME280;6583;42.632;23.298;2023-02-26T02:32:21;69304.59;;;-146.40;34.97
13033;BME280;6583;42.632;23.298;2023-02-26T02:34:56;69310.66;;;-146.40;34.85
13033;BME280;6583;42.632;23.298;2023-02-26T02:37:28;69338.97;;;-146.40;34.96
13033;BME280;6583;42.632;23.298;2023-02-26T02:40:00;69326.84;;;-146.40;34.72
13033;BME280;6583;42.632;23.298;2023-02-26T02:42:31;69316.72;;;-146.40;35.04
13033;BME280;6583;42.632;23.298;2023-02-26T02:45:04;69341.00;;;-146.40;35.06
13033;BME280;6583;42.632;23.298;2023-02-26T02:47:36;69355.16;;;-146.40;35.08
13033;BME280;6583;42.632;23.298;2023-02-26T02:50:08;69341.00;;;-146.40;35.05
13033;BME280;6583;42.632;23.298;2023-02-26T02:52:41;69334.94;;;-146.40;35.14
13033;BME280;6583;42.632;23.298;2023-02-26T02:55:13;69328.88;;;-146.40;35.26
13033;BME280;6583;42.632;23.298;2023-02-26T02:57:45;69336.97;;;-146.40;34.76
13033;BME280;6583;42.632;23.298;2023-02-26T03:00:14;69341.00;;;-146.40;34.77
13033;BME280;6583;42.632;23.298;2023-02-26T03:02:50;69359.19;;;-146.40;35.02
13033;BME280;6583;42.632;23.298;2023-02-26T03:05:18;69328.88;;;-146.40;34.97
13033;BME280;6583;42.632;23.298;2023-02-26T03:07:49;69334.94;;;-146.40;34.62
13033;BME280;6583;42.632;23.298;2023-02-26T03:10:18;69361.22;;;-146.40;34.62
13033;BME280;6583;42.632;23.298;2023-02-26T03:12:45;69320.78;;;-146.40;34.47
13033;BME280;6583;42.632;23.298;2023-02-26T03:15:13;69349.09;;;-146.40;34.22
13033;BME280;6583;42.632;23.298;2023-02-26T03:17:48;69330.88;;;-146.40;34.55
13033;BME280;6583;42.632;23.298;2023-02-26T03:20:22;69341.00;;;-146.40;34.14
13033;BME280;6583;42.632;23.298;2023-02-26T03:23:00;69345.03;;;-146.40;34.27
13033;BME280;6583;42.632;23.298;2023-02-26T03:25:36;69345.03;;;-146.40;34.71
13033;BME280;6583;42.632;23.298;2023-02-26T03:28:08;69353.13;;;-146.40;34.28
13033;BME280;6583;42.632;23.298;2023-02-26T03:30:39;69341.00;;;-146.40;34.28
13033;BME280;6583;42.632;23.298;2023-02-26T03:33:14;69328.88;;;-146.40;34.73
13033;BME280;6583;42.632;23.298;2023-02-26T03:35:48;69334.94;;;-146.40;34.50
13033;BME280;6583;42.632;23.298;2023-02-26T03:38:21;69338.97;;;-146.40;34.70
13033;BME280;6583;42.632;23.298;2023-02-26T03:40:53;69361.22;;;-146.40;34.46
13033;BME280;6583;42.632;23.298;2023-02-26T03:43:25;69353.13;;;-146.40;34.74
13033;BME280;6583;42.632;23.298;2023-02-26T03:45:58;69341.00;;;-146.40;34.92
13033;BME280;6583;42.632;23.298;2023-02-26T03:48:29;69357.19;;;-146.40;34.56
13033;BME280;6583;42.632;23.298;2023-02-26T03:51:00;69353.13;;;-146.40;35.24
13033;BME280;6583;42.632;23.298;2023-02-26T03:53:31;69361.22;;;-146.40;34.60
13033;BME280;6583;42.632;23.298;2023-02-26T03:56:03;69359.19;;;-146.40;34.85
13033;BME280;6583;42.632;23.298;2023-02-26T03:58:32;69353.13;;;-146.40;34.38
13033;BME280;6583;42.632;23.298;2023-02-26T04:01:03;69345.03;;;-146.40;34.81
13033;BME280;6583;42.632;23.298;2023-02-26T04:03:36;69320.78;;;-146.40;34.24
13033;BME280;6583;42.632;23.298;2023-02-26T04:06:06;69347.06;;;-146.40;34.65
13033;BME280;6583;42.632;23.298;2023-02-26T04:08:33;69347.06;;;-146.40;34.61
13033;BME280;6583;42.632;23.298;2023-02-26T04:11:04;69324.81;;;-146.40;34.58
13033;BME280;6583;42.632;23.298;2023-02-26T04:13:31;69338.97;;;-146.40;34.72
13033;BME280;6583;42.632;23.298;2023-02-26T04:15:58;69304.59;;;-146.40;34.80
13033;BME280;6583;42.632;23.298;2023-02-26T04:18:25;69334.94;;;-146.40;34.66
13033;BME280;6583;42.632;23.298;2023-02-26T04:20:53;69328.88;;;-146.40;34.30
13033;BME280;6583;42.632;23.298;2023-02-26T04:23:20;69347.06;;;-146.40;34.29
13033;BME280;6583;42.632;23.298;2023-02-26T04:25:46;69324.81;;;-146.40;34.44
13033;BME280;6583;42.632;23.298;2023-02-26T04:28:13;69296.50;;;-146.40;34.42
13033;BME280;6583;42.632;23.298;2023-02-26T04:30:40;69306.63;;;-146.40;34.27
13033;BME280;6583;42.632;23.298;2023-02-26T04:33:07;69304.59;;;-146.40;33.97
13033;BME280;6583;42.632;23.298;2023-02-26T04:35:33;69282.34;;;-146.40;34.19
13033;BME280;6583;42.632;23.298;2023-02-26T04:38:01;69310.66;;;-146.40;33.91
13033;BME280;6583;42.632;23.298;2023-02-26T04:40:28;69296.50;;;-146.40;33.69
13033;BME280;6583;42.632;23.298;2023-02-26T04:42:55;69310.66;;;-146.40;33.69
13033;BME280;6583;42.632;23.298;2023-02-26T04:45:21;69310.66;;;-146.40;33.60
13033;BME280;6583;42.632;23.298;2023-02-26T04:47:48;69300.56;;;-146.40;33.23
13033;BME280;6583;42.632;23.298;2023-02-26T04:50:15;69294.47;;;-146.40;33.33
13033;BME280;6583;42.632;23.298;2023-02-26T04:52:42;69270.22;;;-146.40;33.61
13033;BME280;6583;42.632;23.298;2023-02-26T04:55:10;69314.72;;;-146.40;33.43
13033;BME280;6583;42.632;23.298;2023-02-26T04:57:37;69252.00;;;-146.40;33.16
13033;BME280;6583;42.632;23.298;2023-02-26T05:00:04;69341.00;;;-146.40;33.46
13033;BME280;6583;42.632;23.298;2023-02-26T05:02:33;69292.47;;;-146.40;33.03
13033;BME280;6583;42.632;23.298;2023-02-26T05:05:00;69262.13;;;-146.40;32.84
13033;BME280;6583;42.632;23.298;2023-02-26T05:07:26;69282.34;;;-146.40;33.06
13033;BME280;6583;42.632;23.298;2023-02-26T05:09:53;69245.94;;;-146.40;32.66
13033;BME280;6583;42.632;23.298;2023-02-26T05:12:21;69260.09;;;-146.40;33.08
13033;BME280;6583;42.632;23.298;2023-02-26T05:14:47;69247.97;;;-146.40;32.54
13033;BME280;6583;42.632;23.298;2023-02-26T05:17:14;69260.09;;;-146.40;32.72
13033;BME280;6583;42.632;23.298;2023-02-26T05:19:41;69258.06;;;-146.40;32.89
13033;BME280;6583;42.632;23.298;2023-02-26T05:22:07;69243.91;;;-146.40;33.05
13033;BME280;6583;42.632;23.298;2023-02-26T05:24:34;69268.19;;;-146.40;33.24
13033;BME280;6583;42.632;23.298;2023-02-26T05:27:01;69245.94;;;-146.40;33.36
13033;BME280;6583;42.632;23.298;2023-02-26T05:29:29;69243.91;;;-146.40;33.28
13033;BME280;6583;42.632;23.298;2023-02-26T05:31:56;69243.91;;;-146.40;33.09
13033;BME280;6583;42.632;23.298;2023-02-26T05:34:23;69243.91;;;-146.40;32.96
13033;BME280;6583;42.632;23.298;2023-02-26T05:36:49;69219.66;;;-146.40;33.51
13033;BME280;6583;42.632;23.298;2023-02-26T05:39:16;69237.84;;;-146.40;32.99
13033;BME280;6583;42.632;23.298;2023-02-26T05:41:42;69243.91;;;-146.40;33.13
13033;BME280;6583;42.632;23.298;2023-02-26T05:44:10;69233.81;;;-146.40;33.23
13033;BME280;6583;42.632;23.298;2023-02-26T05:46:38;69223.69;;;-146.40;33.22
13033;BME280;6583;42.632;23.298;2023-02-26T05:49:05;69219.66;;;-146.40;32.88
13033;BME280;6583;42.632;23.298;2023-02-26T05:51:32;69223.69;;;-146.40;32.68
13033;BME280;6583;42.632;23.298;2023-02-26T05:53:58;69241.91;;;-146.40;32.52
13033;BME280;6583;42.632;23.298;2023-02-26T05:56:25;69241.91;;;-146.40;32.84
13033;BME280;6583;42.632;23.298;2023-02-26T05:58:52;69227.75;;;-146.40;32.53
13033;BME280;6583;42.632;23.298;2023-02-26T06:01:18;69227.75;;;-146.40;32.38
13033;BME280;6583;42.632;23.298;2023-02-26T06:03:46;69231.78;;;-146.40;32.79
13033;BME280;6583;42.632;23.298;2023-02-26T06:06:13;69233.81;;;-146.40;32.33
13033;BME280;6583;42.632;23.298;2023-02-26T06:08:42;69223.69;;;-146.40;32.30
13033;BME280;6583;42.632;23.298;2023-02-26T06:11:09;69227.75;;;-146.40;32.28
13033;BME280;6583;42.632;23.298;2023-02-26T06:13:36;69268.19;;;-146.40;32.12
13033;BME280;6583;42.632;23.298;2023-02-26T06:16:04;69195.38;;;-146.40;32.00
13033;BME280;6583;42.632;23.298;2023-02-26T06:18:30;69201.44;;;-146.40;32.00
13033;BME280;6583;42.632;23.298;2023-02-26T06:20:59;69189.31;;;-146.40;31.72
13033;BME280;6583;42.632;23.298;2023-02-26T06:23:26;69213.59;;;-146.40;32.03
13033;BME280;6583;42.632;23.298;2023-02-26T06:25:53;69189.31;;;-146.40;32.39
13033;BME280;6583;42.632;23.298;2023-02-26T06:28:20;69173.13;;;-146.40;32.17
13033;BME280;6583;42.632;23.298;2023-02-26T06:30:48;69167.06;;;-146.40;31.34
13033;BME280;6583;42.632;23.298;2023-02-26T06:33:15;69181.22;;;-146.40;31.75
13033;BME280;6583;42.632;23.298;2023-02-26T06:35:42;69142.81;;;-146.40;31.40
13033;BME280;6583;42.632;23.298;2023-02-26T06:38:10;69183.25;;;-146.40;31.53
13033;BME280;6583;42.632;23.298;2023-02-26T06:40:36;69175.16;;;-146.40;31.64
13033;BME280;6583;42.632;23.298;2023-02-26T06:43:03;69156.97;;;-146.40;31.81
13033;BME280;6583;42.632;23.298;2023-02-26T06:45:30;69146.84;;;-146.40;31.41
13033;BME280;6583;42.632;23.298;2023-02-26T06:47:56;69187.28;;;-146.40;31.14
13033;BME280;6583;42.632;23.298;2023-02-26T06:50:23;69148.88;;;-146.40;31.07
13033;BME280;6583;42.632;23.298;2023-02-26T06:52:50;69161.00;;;-146.40;30.93
13033;BME280;6583;42.632;23.298;2023-02-26T06:55:18;69134.72;;;-146.40;30.53
13033;BME280;6583;42.632;23.298;2023-02-26T06:57:46;69167.06;;;-146.40;31.01
13033;BME280;6583;42.632;23.298;2023-02-26T07:00:13;69126.63;;;-146.40;30.83
13033;BME280;6583;42.632;23.298;2023-02-26T07:02:40;69128.66;;;-146.40;30.79
13033;BME280;6583;42.632;23.298;2023-02-26T07:05:07;69114.50;;;-146.40;30.64
13033;BME280;6583;42.632;23.298;2023-02-26T07:07:34;69090.22;;;-146.40;30.75
13033;BME280;6583;42.632;23.298;2023-02-26T07:10:01;69080.09;;;-146.40;31.16
13033;BME280;6583;42.632;23.298;2023-02-26T07:12:29;69086.19;;;-146.40;31.02
13033;BME280;6583;42.632;23.298;2023-02-26T07:14:55;69090.22;;;-146.40;31.56
13033;BME280;6583;42.632;23.298;2023-02-26T07:17:22;69098.31;;;-146.40;30.56
13033;BME280;6583;42.632;23.298;2023-02-26T07:19:50;69074.03;;;-146.40;30.98
13033;BME280;6583;42.632;23.298;2023-02-26T07:22:18;69076.06;;;-146.40;30.39
13033;BME280;6583;42.632;23.298;2023-02-26T07:24:45;69104.38;;;-146.40;30.30
13033;BME280;6583;42.632;23.298;2023-02-26T07:27:12;69070.00;;;-146.40;30.54
13033;BME280;6583;42.632;23.298;2023-02-26T07:29:40;69092.25;;;-146.40;30.03
13033;BME280;6583;42.632;23.298;2023-02-26T07:32:06;69086.19;;;-146.40;30.23
13033;BME280;6583;42.632;23.298;2023-02-26T07:34:33;69086.19;;;-146.40;30.20
13033;BME280;6583;42.632;23.298;2023-02-26T07:37:00;69082.13;;;-146.40;29.62
13033;BME280;6583;42.632;23.298;2023-02-26T07:39:26;69057.88;;;-146.40;29.87
13033;BME280;6583;42.632;23.298;2023-02-26T07:41:53;69072.03;;;-146.40;30.40
13033;BME280;6583;42.632;23.298;2023-02-26T07:44:20;69037.63;;;-146.40;29.73
13033;BME280;6583;42.632;23.298;2023-02-26T07:46:48;69013.38;;;-146.40;29.68
13033;BME280;6583;42.632;23.298;2023-02-26T07:49:15;69007.31;;;-146.40;29.27
13033;BME280;6583;42.632;23.298;2023-02-26T07:51:41;68997.19;;;-146.40;29.51
13033;BME280;6583;42.632;23.298;2023-02-26T07:54:10;69021.47;;;-146.40;29.32
13033;BME280;6583;42.632;23.298;2023-02-26T07:56:37;69009.31;;;-146.40;29.30
13033;BME280;6583;42.632;23.298;2023-02-26T07:59:05;68991.13;;;-146.40;29.03
13033;BME280;6583;42.632;23.298;2023-02-26T08:01:33;68991.13;;;-146.40;28.80
13033;BME280;6583;42.632;23.298;2023-02-26T08:04:01;68968.88;;;-146.40;29.25
13033;BME280;6583;42.632;23.298;2023-02-26T08:06:28;68989.09;;;-146.40;28.94
13033;BME280;6583;42.632;23.298;2023-02-26T08:08:55;69005.28;;;-146.40;29.03
13033;BME280;6583;42.632;23.298;2023-02-26T08:11:21;68989.09;;;-146.40;29.08
13033;BME280;6583;42.632;23.298;2023-02-26T08:13:48;68968.88;;;-146.40;28.90
13033;BME280;6583;42.632;23.298;2023-02-26T08:16:15;68999.22;;;-146.40;29.85
13033;BME280;6583;42.632;23.298;2023-02-26T08:18:42;68966.84;;;-146.40;29.13
13033;BME280;6583;42.632;23.298;2023-02-26T08:21:10;68997.19;;;-146.40;29.30
13033;BME280;6583;42.632;23.298;2023-02-26T08:23:37;69049.78;;;-146.40;29.28
13033;BME280;6583;42.632;23.298;2023-02-26T08:26:06;68985.06;;;-146.40;28.72
13033;BME280;6583;42.632;23.298;2023-02-26T08:28:33;69001.25;;;-146.40;28.63
13033;BME280;6583;42.632;23.298;2023-02-26T08:31:00;69043.72;;;-146.40;28.87
13033;BME280;6583;42.632;23.298;2023-02-26T08:33:27;69005.28;;;-146.40;28.65
13033;BME280;6583;42.632;23.298;2023-02-26T08:35:54;68991.13;;;-146.40;28.95
13033;BME280;6583;42.632;23.298;2023-02-26T08:38:23;69005.28;;;-146.40;29.05
13033;BME280;6583;42.632;23.298;2023-02-26T08:40:50;68981.00;;;-146.40;29.01
13033;BME280;6583;42.632;23.298;2023-02-26T08:43:18;69007.31;;;-146.40;29.10
13033;BME280;6583;42.632;23.298;2023-02-26T08:45:45;68997.19;;;-146.40;28.79
13033;BME280;6583;42.632;23.298;2023-02-26T08:48:12;68989.09;;;-146.40;28.57
13033;BME280;6583;42.632;23.298;2023-02-26T08:50:39;68991.13;;;-146.40;28.63
13033;BME280;6583;42.632;23.298;2023-02-26T08:53:06;69013.38;;;-146.40;28.44
13033;BME280;6583;42.632;23.298;2023-02-26T08:55:34;69003.25;;;-146.40;28.60
13033;BME280;6583;42.632;23.298;2023-02-26T08:58:01;69005.28;;;-146.40;28.40
13033;BME280;6583;42.632;23.298;2023-02-26T09:00:27;68942.59;;;-146.40;28.57
13033;BME280;6583;42.632;23.298;2023-02-26T09:02:54;68993.16;;;-146.40;28.31
13033;BME280;6583;42.632;23.298;2023-02-26T09:05:21;68993.16;;;-146.40;27.99
13033;BME280;6583;42.632;23.298;2023-02-26T09:07:48;68964.84;;;-146.40;27.96
13033;BME280;6583;42.632;23.298;2023-02-26T09:10:15;68976.97;;;-146.40;28.46
13033;BME280;6583;42.632;23.298;2023-02-26T09:12:43;68979.00;;;-146.40;28.05
13033;BME280;6583;42.632;23.298;2023-02-26T09:15:11;68922.38;;;-146.40;27.84
13033;BME280;6583;42.632;23.298;2023-02-26T09:17:39;68946.63;;;-146.40;27.85
13033;BME280;6583;42.632;23.298;2023-02-26T09:20:07;68920.34;;;-146.40;26.99
13033;BME280;6583;42.632;23.298;2023-02-26T09:22:34;68928.44;;;-146.40;27.33
13033;BME280;6583;42.632;23.298;2023-02-26T09:25:01;68940.56;;;-146.40;27.19
13033;BME280;6583;42.632;23.298;2023-02-26T09:27:30;68920.34;;;-146.40;27.23
13033;BME280;6583;42.632;23.298;2023-02-26T09:30:00;68914.28;;;-146.40;27.41
13033;BME280;6583;42.632;23.298;2023-02-26T09:32:27;68922.38;;;-146.40;26.98
13033;BME280;6583;42.632;23.298;2023-02-26T09:34:54;68896.06;;;-146.40;27.16
13033;BME280;6583;42.632;23.298;2023-02-26T09:37:21;68879.91;;;-146.40;27.12
13033;BME280;6583;42.632;23.298;2023-02-26T09:39:47;68906.19;;;-146.40;27.24
13033;BME280;6583;42.632;23.298;2023-02-26T09:42:25;68879.91;;;-146.40;27.28
13033;BME280;6583;42.632;23.298;2023-02-26T09:44:54;68871.81;;;-146.40;26.78
13033;BME280;6583;42.632;23.298;2023-02-26T09:47:27;68883.94;;;-146.40;26.40
13033;BME280;6583;42.632;23.298;2023-02-26T09:50:06;68869.78;;;-146.40;27.53
13033;BME280;6583;42.632;23.298;2023-02-26T09:52:39;68877.88;;;-146.40;26.67
13033;BME280;6583;42.632;23.298;2023-02-26T09:55:11;68867.75;;;-146.40;27.19
13033;BME280;6583;42.632;23.298;2023-02-26T09:57:42;68863.72;;;-146.40;26.70
13033;BME280;6583;42.632;23.298;2023-02-26T10:00:20;68888.00;;;-146.40;26.84
13033;BME280;6583;42.632;23.298;2023-02-26T10:02:56;68906.19;;;-146.40;27.17
13033;BME280;6583;42.632;23.298;2023-02-26T10:05:31;68879.91;;;-146.40;27.59
13033;BME280;6583;42.632;23.298;2023-02-26T10:08:05;68851.59;;;-146.40;28.37
13033;BME280;6583;42.632;23.298;2023-02-26T10:10:37;68871.81;;;-146.40;27.81
13033;BME280;6583;42.632;23.298;2023-02-26T10:13:19;68888.00;;;-146.40;27.64
13033;BME280;6583;42.632;23.298;2023-02-26T10:15:49;68869.78;;;-146.40;27.66
13033;BME280;6583;42.632;23.298;2023-02-26T10:18:22;68853.63;;;-146.40;27.37
13033;BME280;6583;42.632;23.298;2023-02-26T10:20:54;68859.69;;;-146.40;27.78
13033;BME280;6583;42.632;23.298;2023-02-26T10:23:25;68859.69;;;-146.40;27.32
13033;BME280;6583;42.632;23.298;2023-02-26T10:25:59;68877.88;;;-146.40;27.49
13033;BME280;6583;42.632;23.298;2023-02-26T10:28:52;68871.81;;;-146.40;27.69
13033;BME280;6583;42.632;23.298;2023-02-26T10:31:25;68902.16;;;-146.40;27.56
13033;BME280;6583;42.632;23.298;2023-02-26T10:34:07;68908.22;;;-146.40;28.09
13033;BME280;6583;42.632;23.298;2023-02-26T10:36:40;68912.25;;;-146.40;27.91
13033;BME280;6583;42.632;23.298;2023-02-26T10:39:18;68928.44;;;-146.40;27.82
13033;BME280;6583;42.632;23.298;2023-02-26T10:41:46;68900.13;;;-146.40;28.32
13033;BME280;6583;42.632;23.298;2023-02-26T10:44:17;68918.31;;;-146.40;28.57
13033;BME280;6583;42.632;23.298;2023-02-26T10:46:54;68926.41;;;-146.40;28.48
13033;BME280;6583;42.632;23.298;2023-02-26T10:49:49;68916.31;;;-146.40;29.07
13033;BME280;6583;42.632;23.298;2023-02-26T10:52:18;68912.25;;;-146.40;29.24
13033;BME280;6583;42.632;23.298;2023-02-26T10:54:55;68918.31;;;-146.40;28.57
13033;BME280;6583;42.632;23.298;2023-02-26T10:57:28;68924.38;;;-146.40;29.24
13033;BME280;6583;42.632;23.298;2023-02-26T10:59:57;68952.69;;;-146.40;29.29
13033;BME280;6583;42.632;23.298;2023-02-26T11:02:34;68936.53;;;-146.40;29.39
13033;BME280;6583;42.632;23.298;2023-02-26T11:05:14;68936.53;;;-146.40;29.39
13033;BME280;6583;42.632;23.298;2023-02-26T11:07:41;68936.53;;;-146.40;29.13
13033;BME280;6583;42.632;23.298;2023-02-26T11:10:15;68920.34;;;-146.40;29.57
13033;BME280;6583;42.632;23.298;2023-02-26T11:12:42;68932.47;;;-146.40;29.26
13033;BME280;6583;42.632;23.298;2023-02-26T11:15:14;68932.47;;;-146.40;28.95
13033;BME280;6583;42.632;23.298;2023-02-26T11:17:40;68938.53;;;-146.40;29.15
13033;BME280;6583;42.632;23.298;2023-02-26T11:20:22;68940.56;;;-146.40;29.56
13033;BME280;6583;42.632;23.298;2023-02-26T11:22:52;68920.34;;;-146.40;29.37
13033;BME280;6583;42.632;23.298;2023-02-26T11:25:22;68922.38;;;-146.40;29.55
13033;BME280;6583;42.632;23.298;2023-02-26T11:27:54;68944.63;;;-146.40;29.71
13033;BME280;6583;42.632;23.298;2023-02-26T11:30:25;68964.84;;;-146.40;30.17
13033;BME280;6583;42.632;23.298;2023-02-26T11:32:56;68968.88;;;-146.40;30.18
13033;BME280;6583;42.632;23.298;2023-02-26T11:35:25;68954.72;;;-146.40;30.41
13033;BME280;6583;42.632;23.298;2023-02-26T11:37:54;68940.56;;;-146.40;30.81
13033;BME280;6583;42.632;23.298;2023-02-26T11:40:33;68989.09;;;-146.40;30.44
13033;BME280;6583;42.632;23.298;2023-02-26T11:43:04;68954.72;;;-146.40;30.43
13033;BME280;6583;42.632;23.298;2023-02-26T11:45:34;68952.69;;;-146.40;31.17
13033;BME280;6583;42.632;23.298;2023-02-26T11:48:03;68974.94;;;-146.40;30.65
13033;BME280;6583;42.632;23.298;2023-02-26T11:50:36;68960.78;;;-146.40;30.81
13033;BME280;6583;42.632;23.298;2023-02-26T11:53:07;68948.66;;;-146.40;30.95
13033;BME280;6583;42.632;23.298;2023-02-26T11:55:43;69013.38;;;-146.40;31.61
13033;BME280;6583;42.632;23.298;2023-02-26T11:58:17;69001.25;;;-146.40;31.88
13033;BME280;6583;42.632;23.298;2023-02-26T12:00:44;69005.28;;;-146.40;32.54
13033;BME280;6583;42.632;23.298;2023-02-26T12:03:16;69013.38;;;-146.40;32.75
13033;BME280;6583;42.632;23.298;2023-02-26T12:05:44;68989.09;;;-146.40;33.46
13033;BME280;6583;42.632;23.298;2023-02-26T12:08:17;69021.47;;;-146.40;33.54
13033;BME280;6583;42.632;23.298;2023-02-26T12:10:53;69057.88;;;-146.40;33.22
13033;BME280;6583;42.632;23.298;2023-02-26T12:13:27;69025.50;;;-146.40;33.11
13033;BME280;6583;42.632;23.298;2023-02-26T12:15:58;69023.47;;;-146.40;33.00
13033;BME280;6583;42.632;23.298;2023-02-26T12:18:34;69045.72;;;-146.40;33.03
13033;BME280;6583;42.632;23.298;2023-02-26T12:21:14;69063.94;;;-146.40;34.05
13033;BME280;6583;42.632;23.298;2023-02-26T12:24:09;69047.75;;;-146.40;34.50
13033;BME280;6583;42.632;23.298;2023-02-26T12:26:41;69070.00;;;-146.40;34.61
13033;BME280;6583;42.632;23.298;2023-02-26T12:29:27;69070.00;;;-146.40;34.17
13033;BME280;6583;42.632;23.298;2023-02-26T12:32:14;69082.13;;;-146.40;34.55
13033;BME280;6583;42.632;23.298;2023-02-26T12:35:02;69061.91;;;-146.40;34.81
13033;BME280;6583;42.632;23.298;2023-02-26T12:37:48;69070.00;;;-146.40;34.80
13033;BME280;6583;42.632;23.298;2023-02-26T12:40:33;69065.94;;;-146.40;34.99
13033;BME280;6583;42.632;23.298;2023-02-26T12:43:09;69055.84;;;-146.40;35.09
13033;BME280;6583;42.632;23.298;2023-02-26T12:45:46;69070.00;;;-146.40;35.04
13033;BME280;6583;42.632;23.298;2023-02-26T12:51:34;69067.97;;;-146.40;34.71
13033;BME280;6583;42.632;23.298;2023-02-26T12:54:21;69070.00;;;-146.40;34.41
13033;BME280;6583;42.632;23.298;2023-02-26T13:03:08;69059.88;;;-146.40;34.02
13033;BME280;6583;42.632;23.298;2023-02-26T13:05:52;69086.19;;;-146.40;34.19
13033;BME280;6583;42.632;23.298;2023-02-26T13:08:24;69084.16;;;-146.40;34.72
13033;BME280;6583;42.632;23.298;2023-02-26T13:11:10;69120.56;;;-146.40;35.51
13033;BME280;6583;42.632;23.298;2023-02-26T13:13:50;69128.66;;;-146.40;35.70